sensor_id;sensor_type;location;lat;lon;timestamp;P1;durP1;ratioP1;P2;durP2;ratioP2
20179;SDS011;10249;48.900;9.090;2022-07-12T00:01:35;11.10;;;10.70;;
20179;SDS011;10249;48.900;9.090;2022-07-12T00:04:02;11.10;;;10.70;;
20179;SDS011;10249;48.900;9.090;2022-07-12T00:06:30;11.00;;;10.60;;
20179;SDS011;10249;48.900;9.090;2022-07-12T00:08:57;11.00;;;10.60;;
20179;SDS011;10249;48.900;9.090;2022-07-12T00:11:24;11.00;;;10.60;;
20179;SDS011;10249;48.900;9.090;2022-07-12T00:13:51;11.23;;;10.83;;
20179;SDS011;10249;48.900;9.090;2022-07-12T00:16:18;11.20;;;10.80;;
20179;SDS011;10249;48.900;9.090;2022-07-12T00:18:46;11.10;;;10.70;;
20179;SDS011;10249;48.900;9.090;2022-07-12T00:21:14;11.00;;;10.60;;
20179;SDS011;10249;48.900;9.090;2022-07-12T00:23:42;10.90;;;10.50;;
20179;SDS011;10249;48.900;9.090;2022-07-12T00:26:09;11.00;;;10.60;;
20179;SDS011;10249;48.900;9.090;2022-07-12T00:28:36;10.90;;;10.50;;
20179;SDS011;10249;48.900;9.090;2022-07-12T00:31:03;10.80;;;10.40;;
20179;SDS011;10249;48.900;9.090;2022-07-12T00:33:30;10.90;;;10.50;;
20179;SDS011;10249;48.900;9.090;2022-07-12T00:35:58;10.63;;;10.23;;
20179;SDS011;10249;48.900;9.090;2022-07-12T00:38:25;10.70;;;10.30;;
20179;SDS011;10249;48.900;9.090;2022-07-12T00:40:53;10.67;;;10.27;;
20179;SDS011;10249;48.900;9.090;2022-07-12T00:43:20;10.83;;;10.43;;
20179;SDS011;10249;48.900;9.090;2022-07-12T00:45:47;10.83;;;10.43;;
20179;SDS011;10249;48.900;9.090;2022-07-12T00:48:14;10.80;;;10.40;;
20179;SDS011;10249;48.900;9.090;2022-07-12T00:50:43;10.50;;;10.10;;
20179;SDS011;10249;48.900;9.090;2022-07-12T00:53:10;10.40;;;10.00;;
20179;SDS011;10249;48.900;9.090;2022-07-12T00:55:39;9.93;;;9.63;;
20179;SDS011;10249;48.900;9.090;2022-07-12T00:58:08;9.80;;;9.50;;
20179;SDS011;10249;48.900;9.090;2022-07-12T01:00:35;9.67;;;9.37;;
20179;SDS011;10249;48.900;9.090;2022-07-12T01:03:02;9.93;;;9.63;;
20179;SDS011;10249;48.900;9.090;2022-07-12T01:05:31;9.80;;;9.50;;
20179;SDS011;10249;48.900;9.090;2022-07-12T01:07:58;9.47;;;9.17;;
20179;SDS011;10249;48.900;9.090;2022-07-12T01:10:25;9.40;;;9.10;;
20179;SDS011;10249;48.900;9.090;2022-07-12T01:12:52;9.40;;;9.10;;
20179;SDS011;10249;48.900;9.090;2022-07-12T01:15:25;8.97;;;8.67;;
20179;SDS011;10249;48.900;9.090;2022-07-12T01:17:53;8.40;;;8.10;;
20179;SDS011;10249;48.900;9.090;2022-07-12T01:20:22;8.30;;;8.00;;
20179;SDS011;10249;48.900;9.090;2022-07-12T01:22:51;8.20;;;7.90;;
20179;SDS011;10249;48.900;9.090;2022-07-12T01:25:19;8.60;;;8.30;;
20179;SDS011;10249;48.900;9.090;2022-07-12T01:27:46;8.70;;;8.40;;
20179;SDS011;10249;48.900;9.090;2022-07-12T01:30:13;9.20;;;8.90;;
20179;SDS011;10249;48.900;9.090;2022-07-12T01:32:40;8.13;;;7.83;;
20179;SDS011;10249;48.900;9.090;2022-07-12T01:35:08;7.60;;;7.40;;
20179;SDS011;10249;48.900;9.090;2022-07-12T01:37:35;7.53;;;7.33;;
20179;SDS011;10249;48.900;9.090;2022-07-12T01:40:04;7.60;;;7.40;;
20179;SDS011;10249;48.900;9.090;2022-07-12T01:42:32;7.67;;;7.47;;
20179;SDS011;10249;48.900;9.090;2022-07-12T01:44:59;7.90;;;7.70;;
20179;SDS011;10249;48.900;9.090;2022-07-12T01:47:27;8.40;;;8.10;;
20179;SDS011;10249;48.900;9.090;2022-07-12T01:49:54;8.40;;;8.10;;
20179;SDS011;10249;48.900;9.090;2022-07-12T01:52:22;8.13;;;7.83;;
20179;SDS011;10249;48.900;9.090;2022-07-12T01:54:49;7.93;;;7.73;;
20179;SDS011;10249;48.900;9.090;2022-07-12T01:57:17;8.20;;;7.90;;
20179;SDS011;10249;48.900;9.090;2022-07-12T01:59:45;7.87;;;7.67;;
20179;SDS011;10249;48.900;9.090;2022-07-12T02:02:12;7.30;;;7.10;;
20179;SDS011;10249;48.900;9.090;2022-07-12T02:04:39;6.90;;;6.70;;
20179;SDS011;10249;48.900;9.090;2022-07-12T02:07:06;6.47;;;6.27;;
20179;SDS011;10249;48.900;9.090;2022-07-12T02:09:33;5.90;;;5.70;;
20179;SDS011;10249;48.900;9.090;2022-07-12T02:12:01;6.20;;;6.00;;
20179;SDS011;10249;48.900;9.090;2022-07-12T02:14:29;6.40;;;6.20;;
20179;SDS011;10249;48.900;9.090;2022-07-12T02:16:56;6.60;;;6.40;;
20179;SDS011;10249;48.900;9.090;2022-07-12T02:19:23;6.27;;;6.07;;
20179;SDS011;10249;48.900;9.090;2022-07-12T02:21:50;6.30;;;6.10;;
20179;SDS011;10249;48.900;9.090;2022-07-12T02:24:17;6.40;;;6.20;;
20179;SDS011;10249;48.900;9.090;2022-07-12T02:26:44;6.57;;;6.37;;
20179;SDS011;10249;48.900;9.090;2022-07-12T02:29:11;6.60;;;6.40;;
20179;SDS011;10249;48.900;9.090;2022-07-12T02:31:40;6.60;;;6.40;;
20179;SDS011;10249;48.900;9.090;2022-07-12T02:34:07;6.23;;;6.03;;
20179;SDS011;10249;48.900;9.090;2022-07-12T02:36:34;6.40;;;6.20;;
20179;SDS011;10249;48.900;9.090;2022-07-12T02:39:01;6.30;;;6.10;;
20179;SDS011;10249;48.900;9.090;2022-07-12T02:41:29;5.27;;;5.13;;
20179;SDS011;10249;48.900;9.090;2022-07-12T02:43:56;5.50;;;5.30;;
20179;SDS011;10249;48.900;9.090;2022-07-12T02:46:23;5.27;;;5.07;;
20179;SDS011;10249;48.900;9.090;2022-07-12T02:48:52;4.60;;;4.50;;
20179;SDS011;10249;48.900;9.090;2022-07-12T02:51:19;4.70;;;4.60;;
20179;SDS011;10249;48.900;9.090;2022-07-12T02:53:46;5.00;;;4.90;;
20179;SDS011;10249;48.900;9.090;2022-07-12T02:56:13;5.10;;;5.00;;
20179;SDS011;10249;48.900;9.090;2022-07-12T02:58:40;5.40;;;5.20;;
20179;SDS011;10249;48.900;9.090;2022-07-12T03:01:07;5.40;;;5.20;;
20179;SDS011;10249;48.900;9.090;2022-07-12T03:03:34;5.80;;;5.60;;
20179;SDS011;10249;48.900;9.090;2022-07-12T03:06:03;6.00;;;5.80;;
20179;SDS011;10249;48.900;9.090;2022-07-12T03:08:30;6.00;;;5.80;;
20179;SDS011;10249;48.900;9.090;2022-07-12T03:10:57;5.53;;;5.33;;
20179;SDS011;10249;48.900;9.090;2022-07-12T03:13:24;5.60;;;5.40;;
20179;SDS011;10249;48.900;9.090;2022-07-12T03:15:51;5.70;;;5.50;;
20179;SDS011;10249;48.900;9.090;2022-07-12T03:18:18;5.70;;;5.50;;
20179;SDS011;10249;48.900;9.090;2022-07-12T03:20:45;5.70;;;5.50;;
20179;SDS011;10249;48.900;9.090;2022-07-12T03:23:15;5.97;;;5.77;;
20179;SDS011;10249;48.900;9.090;2022-07-12T03:25:42;6.20;;;6.00;;
20179;SDS011;10249;48.900;9.090;2022-07-12T03:28:09;6.20;;;6.00;;
20179;SDS011;10249;48.900;9.090;2022-07-12T03:30:36;6.00;;;5.80;;
20179;SDS011;10249;48.900;9.090;2022-07-12T03:33:03;6.20;;;6.00;;
20179;SDS011;10249;48.900;9.090;2022-07-12T03:35:30;6.10;;;5.90;;
20179;SDS011;10249;48.900;9.090;2022-07-12T03:37:57;5.77;;;5.57;;
20179;SDS011;10249;48.900;9.090;2022-07-12T03:40:25;5.60;;;5.40;;
20179;SDS011;10249;48.900;9.090;2022-07-12T03:42:53;5.27;;;5.10;;
20179;SDS011;10249;48.900;9.090;2022-07-12T03:45:20;4.57;;;4.47;;
20179;SDS011;10249;48.900;9.090;2022-07-12T03:47:47;4.30;;;4.17;;
20179;SDS011;10249;48.900;9.090;2022-07-12T03:50:15;4.93;;;4.73;;
20179;SDS011;10249;48.900;9.090;2022-07-12T03:52:42;4.40;;;4.20;;
20179;SDS011;10249;48.900;9.090;2022-07-12T03:55:10;3.90;;;3.80;;
20179;SDS011;10249;48.900;9.090;2022-07-12T03:57:39;4.43;;;4.23;;
20179;SDS011;10249;48.900;9.090;2022-07-12T04:00:07;3.90;;;3.80;;
20179;SDS011;10249;48.900;9.090;2022-07-12T04:02:35;3.73;;;3.63;;
20179;SDS011;10249;48.900;9.090;2022-07-12T04:05:03;4.10;;;4.00;;
20179;SDS011;10249;48.900;9.090;2022-07-12T04:07:31;4.10;;;4.00;;
20179;SDS011;10249;48.900;9.090;2022-07-12T04:09:58;4.40;;;4.30;;
20179;SDS011;10249;48.900;9.090;2022-07-12T04:12:25;4.80;;;4.70;;
20179;SDS011;10249;48.900;9.090;2022-07-12T04:14:53;5.00;;;4.90;;
20179;SDS011;10249;48.900;9.090;2022-07-12T04:17:20;5.20;;;5.10;;
20179;SDS011;10249;48.900;9.090;2022-07-12T04:19:47;5.60;;;5.40;;
20179;SDS011;10249;48.900;9.090;2022-07-12T04:22:14;5.60;;;5.40;;
20179;SDS011;10249;48.900;9.090;2022-07-12T04:24:42;5.40;;;5.20;;
20179;SDS011;10249;48.900;9.090;2022-07-12T04:27:09;5.40;;;5.20;;
20179;SDS011;10249;48.900;9.090;2022-07-12T04:29:36;5.57;;;5.37;;
20179;SDS011;10249;48.900;9.090;2022-07-12T04:32:04;5.40;;;5.20;;
20179;SDS011;10249;48.900;9.090;2022-07-12T04:34:31;5.50;;;5.30;;
20179;SDS011;10249;48.900;9.090;2022-07-12T04:36:59;5.30;;;5.10;;
20179;SDS011;10249;48.900;9.090;2022-07-12T04:39:26;4.80;;;4.70;;
20179;SDS011;10249;48.900;9.090;2022-07-12T04:41:53;4.60;;;4.50;;
20179;SDS011;10249;48.900;9.090;2022-07-12T04:44:20;4.57;;;4.47;;
20179;SDS011;10249;48.900;9.090;2022-07-12T04:46:47;4.60;;;4.50;;
20179;SDS011;10249;48.900;9.090;2022-07-12T04:49:15;4.90;;;4.80;;
20179;SDS011;10249;48.900;9.090;2022-07-12T04:51:42;4.67;;;4.57;;
20179;SDS011;10249;48.900;9.090;2022-07-12T04:54:10;4.80;;;4.70;;
20179;SDS011;10249;48.900;9.090;2022-07-12T04:56:37;5.40;;;5.20;;
20179;SDS011;10249;48.900;9.090;2022-07-12T04:59:04;5.00;;;4.90;;
20179;SDS011;10249;48.900;9.090;2022-07-12T05:01:31;5.33;;;5.13;;
20179;SDS011;10249;48.900;9.090;2022-07-12T05:03:58;5.97;;;5.77;;
20179;SDS011;10249;48.900;9.090;2022-07-12T05:06:27;5.50;;;5.30;;
20179;SDS011;10249;48.900;9.090;2022-07-12T05:08:54;6.00;;;5.80;;
20179;SDS011;10249;48.900;9.090;2022-07-12T05:11:21;6.00;;;5.80;;
20179;SDS011;10249;48.900;9.090;2022-07-12T05:13:48;6.00;;;5.80;;
20179;SDS011;10249;48.900;9.090;2022-07-12T05:16:15;6.30;;;6.10;;
20179;SDS011;10249;48.900;9.090;2022-07-12T05:18:42;7.20;;;6.97;;
20179;SDS011;10249;48.900;9.090;2022-07-12T05:21:09;6.67;;;6.47;;
20179;SDS011;10249;48.900;9.090;2022-07-12T05:23:38;6.60;;;6.40;;
20179;SDS011;10249;48.900;9.090;2022-07-12T05:26:05;7.03;;;6.83;;
20179;SDS011;10249;48.900;9.090;2022-07-12T05:28:32;6.80;;;6.60;;
20179;SDS011;10249;48.900;9.090;2022-07-12T05:30:59;7.37;;;7.00;;
20179;SDS011;10249;48.900;9.090;2022-07-12T05:33:26;6.97;;;6.77;;
20179;SDS011;10249;48.900;9.090;2022-07-12T05:35:54;7.10;;;6.90;;
20179;SDS011;10249;48.900;9.090;2022-07-12T05:38:21;7.20;;;7.00;;
20179;SDS011;10249;48.900;9.090;2022-07-12T05:40:49;7.50;;;7.30;;
20179;SDS011;10249;48.900;9.090;2022-07-12T05:43:17;7.90;;;7.70;;
20179;SDS011;10249;48.900;9.090;2022-07-12T05:45:44;7.43;;;7.23;;
20179;SDS011;10249;48.900;9.090;2022-07-12T05:48:11;7.93;;;7.73;;
20179;SDS011;10249;48.900;9.090;2022-07-12T05:50:38;8.80;;;8.30;;
20179;SDS011;10249;48.900;9.090;2022-07-12T05:53:05;9.17;;;8.77;;
20179;SDS011;10249;48.900;9.090;2022-07-12T05:55:47;9.17;;;8.67;;
20179;SDS011;10249;48.900;9.090;2022-07-12T05:58:15;8.53;;;8.23;;
20179;SDS011;10249;48.900;9.090;2022-07-12T06:00:42;8.77;;;8.47;;
20179;SDS011;10249;48.900;9.090;2022-07-12T06:03:09;8.57;;;8.27;;
20179;SDS011;10249;48.900;9.090;2022-07-12T06:05:36;9.10;;;8.80;;
20179;SDS011;10249;48.900;9.090;2022-07-12T06:08:04;9.43;;;9.13;;
20179;SDS011;10249;48.900;9.090;2022-07-12T06:10:31;9.73;;;9.43;;
20179;SDS011;10249;48.900;9.090;2022-07-12T06:12:58;9.50;;;9.20;;
20179;SDS011;10249;48.900;9.090;2022-07-12T06:15:27;9.90;;;9.60;;
20179;SDS011;10249;48.900;9.090;2022-07-12T06:17:54;10.00;;;9.70;;
20179;SDS011;10249;48.900;9.090;2022-07-12T06:20:22;10.90;;;10.50;;
20179;SDS011;10249;48.900;9.090;2022-07-12T06:22:49;10.80;;;10.40;;
20179;SDS011;10249;48.900;9.090;2022-07-12T06:25:16;11.10;;;10.70;;
20179;SDS011;10249;48.900;9.090;2022-07-12T06:27:43;11.17;;;10.77;;
20179;SDS011;10249;48.900;9.090;2022-07-12T06:30:13;11.00;;;10.60;;
20179;SDS011;10249;48.900;9.090;2022-07-12T06:32:42;11.47;;;11.07;;
20179;SDS011;10249;48.900;9.090;2022-07-12T06:35:09;11.30;;;10.90;;
20179;SDS011;10249;48.900;9.090;2022-07-12T06:37:36;11.30;;;10.90;;
20179;SDS011;10249;48.900;9.090;2022-07-12T06:40:03;11.37;;;10.97;;
20179;SDS011;10249;48.900;9.090;2022-07-12T06:42:31;11.50;;;11.10;;
20179;SDS011;10249;48.900;9.090;2022-07-12T06:44:58;11.80;;;11.40;;
20179;SDS011;10249;48.900;9.090;2022-07-12T06:47:25;11.80;;;11.40;;
20179;SDS011;10249;48.900;9.090;2022-07-12T06:49:53;12.03;;;11.53;;
20179;SDS011;10249;48.900;9.090;2022-07-12T06:52:20;11.83;;;11.43;;
20179;SDS011;10249;48.900;9.090;2022-07-12T06:54:47;11.90;;;11.50;;
20179;SDS011;10249;48.900;9.090;2022-07-12T06:57:15;11.47;;;11.07;;
20179;SDS011;10249;48.900;9.090;2022-07-12T06:59:42;11.80;;;11.40;;
20179;SDS011;10249;48.900;9.090;2022-07-12T07:02:09;11.83;;;11.43;;
20179;SDS011;10249;48.900;9.090;2022-07-12T07:04:36;11.53;;;11.13;;
20179;SDS011;10249;48.900;9.090;2022-07-12T07:07:05;11.80;;;11.40;;
20179;SDS011;10249;48.900;9.090;2022-07-12T07:09:32;11.90;;;11.50;;
20179;SDS011;10249;48.900;9.090;2022-07-12T07:12:00;11.90;;;11.40;;
20179;SDS011;10249;48.900;9.090;2022-07-12T07:14:27;11.57;;;11.17;;
20179;SDS011;10249;48.900;9.090;2022-07-12T07:16:54;12.57;;;12.07;;
20179;SDS011;10249;48.900;9.090;2022-07-12T07:19:21;11.60;;;11.20;;
20179;SDS011;10249;48.900;9.090;2022-07-12T07:21:49;11.87;;;11.47;;
20179;SDS011;10249;48.900;9.090;2022-07-12T07:24:18;11.77;;;11.37;;
20179;SDS011;10249;48.900;9.090;2022-07-12T07:26:45;12.40;;;11.90;;
20179;SDS011;10249;48.900;9.090;2022-07-12T07:29:12;11.70;;;11.30;;
20179;SDS011;10249;48.900;9.090;2022-07-12T07:31:57;11.90;;;11.50;;
20179;SDS011;10249;48.900;9.090;2022-07-12T07:34:25;11.90;;;11.50;;
20179;SDS011;10249;48.900;9.090;2022-07-12T07:36:52;12.20;;;11.70;;
20179;SDS011;10249;48.900;9.090;2022-07-12T07:39:20;12.40;;;11.90;;
20179;SDS011;10249;48.900;9.090;2022-07-12T07:41:47;12.37;;;11.87;;
20179;SDS011;10249;48.900;9.090;2022-07-12T07:44:14;12.80;;;12.30;;
20179;SDS011;10249;48.900;9.090;2022-07-12T07:46:41;13.30;;;12.80;;
20179;SDS011;10249;48.900;9.090;2022-07-12T07:49:08;12.73;;;12.23;;
20179;SDS011;10249;48.900;9.090;2022-07-12T07:51:36;13.30;;;12.70;;
20179;SDS011;10249;48.900;9.090;2022-07-12T07:54:03;13.93;;;13.27;;
20179;SDS011;10249;48.900;9.090;2022-07-12T07:56:31;13.07;;;12.57;;
20179;SDS011;10249;48.900;9.090;2022-07-12T07:58:58;13.10;;;12.60;;
20179;SDS011;10249;48.900;9.090;2022-07-12T08:01:25;12.97;;;12.47;;
20179;SDS011;10249;48.900;9.090;2022-07-12T08:04:06;13.67;;;13.07;;
20179;SDS011;10249;48.900;9.090;2022-07-12T08:06:34;13.80;;;13.20;;
20179;SDS011;10249;48.900;9.090;2022-07-12T08:09:01;13.60;;;13.00;;
20179;SDS011;10249;48.900;9.090;2022-07-12T08:11:28;14.10;;;13.50;;
20179;SDS011;10249;48.900;9.090;2022-07-12T08:13:56;14.40;;;13.80;;
20179;SDS011;10249;48.900;9.090;2022-07-12T08:16:23;14.17;;;13.57;;
20179;SDS011;10249;48.900;9.090;2022-07-12T08:18:50;14.70;;;14.10;;
20179;SDS011;10249;48.900;9.090;2022-07-12T08:21:17;14.60;;;13.93;;
20179;SDS011;10249;48.900;9.090;2022-07-12T08:23:44;14.40;;;13.80;;
20179;SDS011;10249;48.900;9.090;2022-07-12T08:26:11;13.80;;;13.20;;
20179;SDS011;10249;48.900;9.090;2022-07-12T08:28:38;14.50;;;13.90;;
20179;SDS011;10249;48.900;9.090;2022-07-12T08:31:07;14.20;;;13.60;;
20179;SDS011;10249;48.900;9.090;2022-07-12T08:33:34;14.30;;;13.70;;
20179;SDS011;10249;48.900;9.090;2022-07-12T08:36:01;14.47;;;13.87;;
20179;SDS011;10249;48.900;9.090;2022-07-12T08:38:28;14.80;;;14.10;;
20179;SDS011;10249;48.900;9.090;2022-07-12T08:40:57;14.80;;;14.20;;
20179;SDS011;10249;48.900;9.090;2022-07-12T08:43:24;14.13;;;13.53;;
20179;SDS011;10249;48.900;9.090;2022-07-12T08:45:51;14.50;;;13.90;;
20179;SDS011;10249;48.900;9.090;2022-07-12T08:48:19;14.30;;;13.70;;
20179;SDS011;10249;48.900;9.090;2022-07-12T08:50:59;14.77;;;14.17;;
20179;SDS011;10249;48.900;9.090;2022-07-12T08:53:26;14.10;;;13.50;;
20179;SDS011;10249;48.900;9.090;2022-07-12T08:55:53;14.50;;;13.90;;
20179;SDS011;10249;48.900;9.090;2022-07-12T08:58:20;14.37;;;13.77;;
20179;SDS011;10249;48.900;9.090;2022-07-12T09:00:47;14.80;;;14.20;;
20179;SDS011;10249;48.900;9.090;2022-07-12T09:03:15;15.10;;;14.40;;
20179;SDS011;10249;48.900;9.090;2022-07-12T09:05:48;15.20;;;14.50;;
20179;SDS011;10249;48.900;9.090;2022-07-12T09:08:16;15.07;;;14.37;;
20179;SDS011;10249;48.900;9.090;2022-07-12T09:10:54;15.50;;;14.70;;
20179;SDS011;10249;48.900;9.090;2022-07-12T09:13:21;15.13;;;14.43;;
20179;SDS011;10249;48.900;9.090;2022-07-12T09:16:11;15.67;;;14.87;;
20179;SDS011;10249;48.900;9.090;2022-07-12T09:18:39;15.10;;;14.40;;
20179;SDS011;10249;48.900;9.090;2022-07-12T09:21:07;14.90;;;14.20;;
20179;SDS011;10249;48.900;9.090;2022-07-12T09:23:34;15.00;;;14.30;;
20179;SDS011;10249;48.900;9.090;2022-07-12T09:26:01;15.60;;;14.90;;
20179;SDS011;10249;48.900;9.090;2022-07-12T09:28:34;16.30;;;15.50;;
20179;SDS011;10249;48.900;9.090;2022-07-12T09:31:01;14.70;;;14.10;;
20179;SDS011;10249;48.900;9.090;2022-07-12T09:33:28;14.73;;;14.10;;
20179;SDS011;10249;48.900;9.090;2022-07-12T09:36:14;15.10;;;14.40;;
20179;SDS011;10249;48.900;9.090;2022-07-12T09:38:48;15.30;;;14.60;;
20179;SDS011;10249;48.900;9.090;2022-07-12T09:41:18;15.37;;;14.53;;
20179;SDS011;10249;48.900;9.090;2022-07-12T09:43:45;15.17;;;14.47;;
20179;SDS011;10249;48.900;9.090;2022-07-12T09:46:12;15.00;;;14.30;;
20179;SDS011;10249;48.900;9.090;2022-07-12T09:48:40;14.97;;;14.27;;
20179;SDS011;10249;48.900;9.090;2022-07-12T09:51:08;15.43;;;14.73;;
20179;SDS011;10249;48.900;9.090;2022-07-12T09:53:38;15.50;;;14.80;;
20179;SDS011;10249;48.900;9.090;2022-07-12T09:56:09;15.37;;;14.57;;
20179;SDS011;10249;48.900;9.090;2022-07-12T09:58:38;16.20;;;15.40;;
20179;SDS011;10249;48.900;9.090;2022-07-12T10:01:06;15.40;;;14.70;;
20179;SDS011;10249;48.900;9.090;2022-07-12T10:03:35;15.93;;;15.20;;
20179;SDS011;10249;48.900;9.090;2022-07-12T10:06:02;15.60;;;14.90;;
20179;SDS011;10249;48.900;9.090;2022-07-12T10:08:30;15.27;;;14.57;;
20179;SDS011;10249;48.900;9.090;2022-07-12T10:10:58;15.27;;;14.57;;
20179;SDS011;10249;48.900;9.090;2022-07-12T10:13:25;15.80;;;15.10;;
20179;SDS011;10249;48.900;9.090;2022-07-12T10:15:57;15.60;;;14.90;;
20179;SDS011;10249;48.900;9.090;2022-07-12T10:18:24;15.40;;;14.70;;
20179;SDS011;10249;48.900;9.090;2022-07-12T10:20:51;15.50;;;14.80;;
20179;SDS011;10249;48.900;9.090;2022-07-12T10:23:29;15.27;;;14.57;;
20179;SDS011;10249;48.900;9.090;2022-07-12T10:26:00;15.87;;;15.17;;
20179;SDS011;10249;48.900;9.090;2022-07-12T10:31:13;15.20;;;14.50;;
20179;SDS011;10249;48.900;9.090;2022-07-12T10:33:42;15.40;;;14.70;;
20179;SDS011;10249;48.900;9.090;2022-07-12T10:36:09;15.90;;;15.10;;
20179;SDS011;10249;48.900;9.090;2022-07-12T10:38:36;16.07;;;15.27;;
20179;SDS011;10249;48.900;9.090;2022-07-12T10:41:16;15.80;;;15.00;;
20179;SDS011;10249;48.900;9.090;2022-07-12T10:43:44;16.00;;;15.20;;
20179;SDS011;10249;48.900;9.090;2022-07-12T10:46:29;15.87;;;15.07;;
20179;SDS011;10249;48.900;9.090;2022-07-12T10:51:42;16.43;;;15.73;;
20179;SDS011;10249;48.900;9.090;2022-07-12T10:54:29;15.53;;;14.83;;
20179;SDS011;10249;48.900;9.090;2022-07-12T10:56:58;15.60;;;14.90;;
20179;SDS011;10249;48.900;9.090;2022-07-12T10:59:25;15.93;;;15.23;;
20179;SDS011;10249;48.900;9.090;2022-07-12T11:01:53;15.98;;;15.27;;
20179;SDS011;10249;48.900;9.090;2022-07-12T11:04:21;15.40;;;14.70;;
20179;SDS011;10249;48.900;9.090;2022-07-12T11:06:49;15.63;;;14.93;;
20179;SDS011;10249;48.900;9.090;2022-07-12T11:09:20;15.90;;;14.80;;
20179;SDS011;10249;48.900;9.090;2022-07-12T11:11:48;15.20;;;14.50;;
20179;SDS011;10249;48.900;9.090;2022-07-12T11:14:21;15.40;;;14.70;;
20179;SDS011;10249;48.900;9.090;2022-07-12T11:16:48;15.33;;;14.63;;
20179;SDS011;10249;48.900;9.090;2022-07-12T11:19:20;15.65;;;14.95;;
20179;SDS011;10249;48.900;9.090;2022-07-12T11:21:47;15.50;;;14.80;;
20179;SDS011;10249;48.900;9.090;2022-07-12T11:24:20;15.32;;;14.63;;
20179;SDS011;10249;48.900;9.090;2022-07-12T11:26:47;15.50;;;14.80;;
20179;SDS011;10249;48.900;9.090;2022-07-12T11:29:14;15.68;;;14.98;;
20179;SDS011;10249;48.900;9.090;2022-07-12T11:31:43;16.00;;;15.20;;
20179;SDS011;10249;48.900;9.090;2022-07-12T11:34:18;16.10;;;15.30;;
20179;SDS011;10249;48.900;9.090;2022-07-12T11:36:46;15.52;;;14.82;;
20179;SDS011;10249;48.900;9.090;2022-07-12T11:39:13;15.95;;;15.15;;
20179;SDS011;10249;48.900;9.090;2022-07-12T11:41:42;15.60;;;14.85;;
20179;SDS011;10249;48.900;9.090;2022-07-12T11:44:20;15.32;;;14.63;;
20179;SDS011;10249;48.900;9.090;2022-07-12T11:46:50;15.48;;;14.77;;
20179;SDS011;10249;48.900;9.090;2022-07-12T11:49:17;15.75;;;15.05;;
20179;SDS011;10249;48.900;9.090;2022-07-12T11:51:44;16.02;;;15.32;;
20179;SDS011;10249;48.900;9.090;2022-07-12T11:54:11;16.17;;;15.43;;
20179;SDS011;10249;48.900;9.090;2022-07-12T11:56:38;16.60;;;15.80;;
20179;SDS011;10249;48.900;9.090;2022-07-12T11:59:06;15.75;;;15.05;;
20179;SDS011;10249;48.900;9.090;2022-07-12T12:01:33;15.88;;;15.10;;
20179;SDS011;10249;48.900;9.090;2022-07-12T12:04:01;15.18;;;14.48;;
20179;SDS011;10249;48.900;9.090;2022-07-12T12:06:29;15.60;;;14.90;;
20179;SDS011;10249;48.900;9.090;2022-07-12T12:09:04;15.40;;;14.70;;
20179;SDS011;10249;48.900;9.090;2022-07-12T12:11:32;15.70;;;14.90;;
20179;SDS011;10249;48.900;9.090;2022-07-12T12:13:59;15.50;;;14.80;;
20179;SDS011;10249;48.900;9.090;2022-07-12T12:16:26;15.50;;;14.80;;
20179;SDS011;10249;48.900;9.090;2022-07-12T12:19:00;15.65;;;14.95;;
20179;SDS011;10249;48.900;9.090;2022-07-12T12:21:29;15.88;;;15.18;;
20179;SDS011;10249;48.900;9.090;2022-07-12T12:24:07;15.55;;;14.85;;
20179;SDS011;10249;48.900;9.090;2022-07-12T12:26:35;15.65;;;14.95;;
20179;SDS011;10249;48.900;9.090;2022-07-12T12:29:02;15.60;;;14.90;;
20179;SDS011;10249;48.900;9.090;2022-07-12T12:31:30;15.73;;;14.95;;
20179;SDS011;10249;48.900;9.090;2022-07-12T12:33:57;15.90;;;15.10;;
20179;SDS011;10249;48.900;9.090;2022-07-12T12:36:26;16.20;;;15.40;;
20179;SDS011;10249;48.900;9.090;2022-07-12T12:38:55;16.10;;;15.30;;
20179;SDS011;10249;48.900;9.090;2022-07-12T12:41:23;16.13;;;15.32;;
20179;SDS011;10249;48.900;9.090;2022-07-12T12:43:57;16.33;;;15.52;;
20179;SDS011;10249;48.900;9.090;2022-07-12T12:49:06;16.20;;;15.40;;
20179;SDS011;10249;48.900;9.090;2022-07-12T12:51:42;16.08;;;15.27;;
20179;SDS011;10249;48.900;9.090;2022-07-12T12:54:31;15.95;;;15.15;;
20179;SDS011;10249;48.900;9.090;2022-07-12T12:56:58;16.10;;;15.30;;
20179;SDS011;10249;48.900;9.090;2022-07-12T12:59:25;16.00;;;15.23;;
20179;SDS011;10249;48.900;9.090;2022-07-12T13:01:52;16.17;;;15.38;;
20179;SDS011;10249;48.900;9.090;2022-07-12T13:04:19;16.27;;;15.48;;
20179;SDS011;10249;48.900;9.090;2022-07-12T13:06:46;16.35;;;15.55;;
20179;SDS011;10249;48.900;9.090;2022-07-12T13:09:13;16.27;;;15.48;;
20179;SDS011;10249;48.900;9.090;2022-07-12T13:11:42;16.48;;;15.68;;
20179;SDS011;10249;48.900;9.090;2022-07-12T13:14:09;16.20;;;15.40;;
20179;SDS011;10249;48.900;9.090;2022-07-12T13:16:36;16.30;;;15.50;;
20179;SDS011;10249;48.900;9.090;2022-07-12T13:19:03;16.20;;;15.40;;
20179;SDS011;10249;48.900;9.090;2022-07-12T13:21:30;16.23;;;15.43;;
20179;SDS011;10249;48.900;9.090;2022-07-12T13:23:57;16.45;;;15.65;;
20179;SDS011;10249;48.900;9.090;2022-07-12T13:26:24;16.35;;;15.55;;
20179;SDS011;10249;48.900;9.090;2022-07-12T13:28:53;16.55;;;15.75;;
20179;SDS011;10249;48.900;9.090;2022-07-12T13:31:20;16.38;;;15.57;;
20179;SDS011;10249;48.900;9.090;2022-07-12T13:33:47;16.75;;;15.95;;
20179;SDS011;10249;48.900;9.090;2022-07-12T13:36:14;16.30;;;15.50;;
20179;SDS011;10249;48.900;9.090;2022-07-12T13:38:42;16.45;;;15.65;;
20179;SDS011;10249;48.900;9.090;2022-07-12T13:41:09;16.27;;;15.48;;
20179;SDS011;10249;48.900;9.090;2022-07-12T13:43:36;15.95;;;15.25;;
20179;SDS011;10249;48.900;9.090;2022-07-12T13:46:04;16.15;;;15.35;;
20179;SDS011;10249;48.900;9.090;2022-07-12T13:48:31;16.23;;;15.43;;
20179;SDS011;10249;48.900;9.090;2022-07-12T13:50:59;16.25;;;15.45;;
20179;SDS011;10249;48.900;9.090;2022-07-12T13:53:26;15.73;;;15.02;;
20179;SDS011;10249;48.900;9.090;2022-07-12T13:55:53;15.98;;;15.18;;
20179;SDS011;10249;48.900;9.090;2022-07-12T13:58:20;16.05;;;15.25;;
20179;SDS011;10249;48.900;9.090;2022-07-12T14:00:48;16.08;;;15.27;;
20179;SDS011;10249;48.900;9.090;2022-07-12T14:03:17;15.80;;;15.10;;
20179;SDS011;10249;48.900;9.090;2022-07-12T14:05:45;16.90;;;15.68;;
20179;SDS011;10249;48.900;9.090;2022-07-12T14:08:12;16.30;;;15.50;;
20179;SDS011;10249;48.900;9.090;2022-07-12T14:10:39;15.82;;;15.13;;
20179;SDS011;10249;48.900;9.090;2022-07-12T14:13:06;15.70;;;15.00;;
20179;SDS011;10249;48.900;9.090;2022-07-12T14:15:33;15.07;;;14.38;;
20179;SDS011;10249;48.900;9.090;2022-07-12T14:18:04;15.25;;;14.55;;
20179;SDS011;10249;48.900;9.090;2022-07-12T14:20:32;15.23;;;14.52;;
20179;SDS011;10249;48.900;9.090;2022-07-12T14:23:00;15.02;;;14.32;;
20179;SDS011;10249;48.900;9.090;2022-07-12T14:25:27;15.10;;;14.40;;
20179;SDS011;10249;48.900;9.090;2022-07-12T14:27:54;15.18;;;14.48;;
20179;SDS011;10249;48.900;9.090;2022-07-12T14:30:21;15.18;;;14.48;;
20179;SDS011;10249;48.900;9.090;2022-07-12T14:32:49;15.45;;;14.65;;
20179;SDS011;10249;48.900;9.090;2022-07-12T14:35:16;15.07;;;14.38;;
20179;SDS011;10249;48.900;9.090;2022-07-12T14:37:44;15.13;;;14.43;;
20179;SDS011;10249;48.900;9.090;2022-07-12T14:40:11;15.20;;;14.50;;
20179;SDS011;10249;48.900;9.090;2022-07-12T14:42:38;15.32;;;14.63;;
20179;SDS011;10249;48.900;9.090;2022-07-12T14:45:07;15.38;;;14.68;;